createdAt,value
2019-05-10T00:12:37.188Z,20.72
2019-05-10T00:27:45.692Z,21.60
2019-05-10T00:42:52.706Z,26.27
2019-05-10T00:57:59.820Z,21.80
2019-05-10T01:13:07.538Z,19.57
2019-05-10T01:28:14.615Z,19.37
2019-05-10T01:43:21.274Z,20.88
2019-05-10T01:58:29.128Z,16.23
2019-05-10T02:13:38.286Z,16.87
2019-05-10T02:28:45.513Z,26.35
2019-05-10T02:43:52.608Z,17.80
2019-05-10T02:59:01.034Z,23.87
2019-05-10T03:14:13.243Z,15.72
2019-05-10T03:29:21.152Z,11.75
2019-05-10T03:44:27.917Z,13.98
2019-05-10T03:59:34.800Z,13.22
2019-05-10T04:14:41.716Z,15.05
2019-05-10T04:29:49.605Z,11.28
2019-05-10T04:44:56.430Z,12.30
2019-05-10T05:00:03.636Z,9.43
2019-05-10T05:15:10.843Z,8.90
2019-05-10T05:30:18.527Z,7.55
2019-05-10T05:45:28.302Z,7.03
2019-05-10T06:00:37.928Z,13.55
2019-05-10T06:15:42.717Z,4.72
2019-05-10T06:30:50.629Z,4.78
2019-05-10T06:45:57.722Z,4.37
2019-05-10T07:01:05.696Z,5.15
2019-05-10T07:16:14.533Z,5.83
2019-05-10T07:31:23.723Z,4.55
2019-05-10T07:46:30.648Z,6.17
2019-05-10T08:01:37.733Z,8.20
2019-05-10T08:16:44.301Z,4.12
2019-05-10T08:31:56.024Z,5.40
2019-05-10T08:47:07.585Z,4.90
2019-05-10T09:02:14.542Z,6.67
2019-05-10T09:17:28.086Z,4.53
2019-05-10T09:32:33.399Z,4.10
2019-05-10T09:47:43.553Z,7.17
2019-05-10T10:02:56.220Z,2.95
2019-05-10T10:17:58.740Z,2.37
2019-05-10T10:33:10.665Z,3.30
2019-05-10T10:48:14.111Z,2.67
2019-05-10T11:03:23.862Z,5.33
2019-05-10T11:18:31.733Z,7.72
2019-05-10T11:33:41.551Z,7.12
2019-05-10T11:48:48.137Z,5.33
2019-05-10T12:03:55.290Z,8.03
2019-05-10T12:19:15.054Z,3.22
2019-05-10T12:34:14.505Z,2.98
2019-05-10T12:49:21.688Z,3.00
2019-05-10T13:04:40.003Z,2.83
2019-05-10T13:19:37.518Z,2.72
2019-05-10T13:34:44.740Z,3.72
2019-05-10T13:49:52.020Z,6.05
2019-05-10T14:05:00.140Z,3.90
2019-05-10T14:20:19.729Z,13.43
2019-05-10T14:35:22.421Z,6.95
2019-05-10T14:50:30.511Z,5.50
2019-05-10T15:05:37.609Z,14.63
2019-05-10T15:20:44.785Z,5.90
2019-05-10T15:35:53.973Z,8.13
2019-05-10T15:51:02.062Z,8.73
2019-05-10T16:06:08.673Z,4.53
2019-05-10T16:21:19.836Z,5.80
2019-05-10T16:36:35.832Z,5.53
2019-05-10T16:51:47.664Z,4.53
2019-05-10T17:06:55.565Z,9.55
2019-05-10T17:22:02.416Z,5.05
2019-05-10T17:37:11.392Z,9.65
2019-05-10T17:52:18.701Z,9.50
2019-05-10T18:07:25.335Z,6.80
2019-05-10T18:22:42.214Z,12.78
2019-05-10T18:37:40.357Z,12.20
2019-05-10T18:52:49.033Z,16.82
2019-05-10T19:08:04.580Z,11.10
2019-05-10T19:23:05.927Z,13.20
2019-05-10T19:38:13.268Z,15.13
2019-05-10T19:53:21.410Z,21.80
2019-05-10T20:08:29.229Z,19.35
2019-05-10T20:23:36.517Z,19.90
2019-05-10T20:38:43.944Z,19.37
2019-05-10T20:53:51.075Z,22.90
2019-05-10T21:09:01.448Z,29.42
2019-05-10T21:24:10.778Z,30.32
2019-05-10T21:39:17.917Z,31.10
2019-05-10T21:54:24.901Z,25.12
2019-05-10T22:09:31.574Z,31.05
2019-05-10T22:24:38.362Z,52.05
2019-05-10T22:39:46.171Z,44.58
2019-05-10T22:54:53.252Z,36.88
2019-05-10T23:10:00.664Z,34.98
2019-05-10T23:25:09.177Z,34.30
2019-05-10T23:40:16.078Z,29.65
2019-05-10T23:55:23.713Z,27.52
